createdAt,value
2023-05-18T01:06:46.259Z,11.11
2023-05-18T01:09:29.844Z,12.39
2023-05-18T01:12:10.311Z,9.55
2023-05-18T01:14:46.715Z,12.37
2023-05-18T01:17:18.966Z,11.42
2023-05-18T01:23:47.892Z,11.36
2023-05-18T01:26:44.708Z,10.02
2023-05-18T01:29:33.300Z,12.31
2023-05-18T01:32:07.734Z,9.38
2023-05-18T01:34:46.269Z,10.95
2023-05-18T01:41:34.222Z,10.39
2023-05-18T01:44:06.254Z,10.44
2023-05-18T01:46:55.597Z,9.12
2023-05-18T01:49:35.098Z,9.61
2023-05-18T01:52:16.161Z,11.14
2023-05-18T01:54:54.412Z,8.58
2023-05-18T01:57:40.588Z,9.50
2023-05-18T02:00:20.140Z,12.05
2023-05-18T02:02:56.827Z,9.19
2023-05-18T02:05:31.846Z,8.97
2023-05-18T02:08:03.635Z,9.55
2023-05-18T02:10:31.769Z,9.15
2023-05-18T02:13:07.961Z,10.34
2023-05-18T02:15:37.335Z,11.37
2023-05-18T02:18:08.970Z,11.70
2023-05-18T02:20:38.241Z,11.65
2023-05-18T02:23:11.407Z,10.41
2023-05-18T02:25:44.568Z,10.07
2023-05-18T02:28:14.996Z,8.98
2023-05-18T02:30:56.086Z,9.31
2023-05-18T02:33:27.745Z,8.45
2023-05-18T02:38:35.618Z,9.99
2023-05-18T02:41:10.085Z,8.57
2023-05-18T02:43:51.848Z,11.38
2023-05-18T02:46:33.195Z,8.37
2023-05-18T02:52:57.090Z,10.44
2023-05-18T02:55:43.110Z,11.20
2023-05-18T02:58:24.999Z,8.83
2023-05-18T03:01:08.505Z,11.17
2023-05-18T03:03:48.029Z,8.18
2023-05-18T03:06:47.095Z,11.14
2023-05-18T03:10:13.844Z,11.13
2023-05-18T03:12:59.910Z,9.87
2023-05-18T03:15:42.408Z,10.17
2023-05-18T03:18:27.915Z,7.59
2023-05-18T03:21:26.353Z,7.41
2023-05-18T03:24:35.307Z,10.62
2023-05-18T03:27:28.902Z,7.83
2023-05-18T03:33:56.052Z,10.58
2023-05-18T03:36:42.898Z,10.89
2023-05-18T03:40:13.910Z,10.91
2023-05-18T03:43:37.735Z,8.20
2023-05-18T03:57:09.973Z,10.01
2023-05-18T04:00:22.941Z,7.58
2023-05-18T04:03:46.054Z,8.25
2023-05-18T04:07:17.620Z,10.78
2023-05-18T04:10:28.483Z,10.81
2023-05-18T04:16:37.872Z,8.37
2023-05-18T04:19:49.473Z,8.75
2023-05-18T04:30:22.187Z,10.83
2023-05-18T04:50:10.918Z,7.20
2023-05-18T04:53:59.824Z,10.89
2023-05-18T04:58:59.515Z,10.88
2023-05-18T05:01:27.307Z,10.75
2023-05-18T05:03:57.499Z,10.97
2023-05-18T05:06:26.749Z,10.66
2023-05-18T05:08:55.754Z,10.69
2023-05-18T05:11:23.538Z,11.04
2023-05-18T05:14:02.158Z,10.98
2023-05-18T05:16:30.109Z,11.15
2023-05-18T05:18:58.125Z,11.21
2023-05-18T05:21:26.210Z,11.27
2023-05-18T05:23:54.047Z,11.21
2023-05-18T05:26:22.668Z,11.18
2023-05-18T05:28:51.606Z,11.41
2023-05-18T05:31:20.784Z,11.49
2023-05-18T05:33:48.652Z,11.67
2023-05-18T05:36:16.444Z,11.77
2023-05-18T05:38:44.338Z,11.92
2023-05-18T05:41:12.146Z,11.41
2023-05-18T05:43:40.010Z,12.06
2023-05-18T05:46:07.791Z,12.49
2023-05-18T05:48:37.079Z,12.77
2023-05-18T05:51:05.097Z,13.33
2023-05-18T05:53:32.975Z,13.39
2023-05-18T05:56:00.787Z,13.60
2023-05-18T05:58:28.526Z,14.37
2023-05-18T06:00:56.922Z,15.03
2023-05-18T06:03:24.807Z,15.05
2023-05-18T06:05:54.327Z,15.68
2023-05-18T06:08:24.293Z,16.00
2023-05-18T06:10:52.082Z,15.98
2023-05-18T06:13:19.986Z,16.22
2023-05-18T06:15:47.842Z,16.87
2023-05-18T06:18:15.794Z,17.12
2023-05-18T06:20:43.698Z,17.44
2023-05-18T06:23:12.990Z,17.60
2023-05-18T06:25:41.023Z,17.96
2023-05-18T06:28:09.220Z,18.31
2023-05-18T06:30:37.525Z,18.63
2023-05-18T06:33:05.659Z,18.83
2023-05-18T06:35:33.779Z,19.00
2023-05-18T06:38:01.717Z,17.99
2023-05-18T06:40:34.464Z,17.16
2023-05-18T06:43:02.497Z,19.60
2023-05-18T06:45:30.825Z,18.96
2023-05-18T06:47:59.470Z,19.15
2023-05-18T06:51:05.891Z,20.20
2023-05-18T06:54:15.477Z,20.30
2023-05-18T06:59:20.076Z,20.66
2023-05-18T07:01:48.053Z,20.27
2023-05-18T07:04:19.363Z,20.01
2023-05-18T07:06:47.286Z,20.74
2023-05-18T07:09:15.317Z,21.04
2023-05-18T07:11:45.541Z,19.87
2023-05-18T07:14:13.426Z,21.44
2023-05-18T07:16:44.324Z,20.06
2023-05-18T07:19:12.089Z,22.04
2023-05-18T07:21:40.210Z,22.15
2023-05-18T07:24:08.261Z,21.82
2023-05-18T07:26:36.522Z,23.15
2023-05-18T07:29:04.402Z,23.44
2023-05-18T07:31:33.646Z,23.72
2023-05-18T07:34:07.834Z,24.04
2023-05-18T07:36:35.929Z,23.69
2023-05-18T07:39:04.799Z,23.94
2023-05-18T07:41:34.971Z,24.38
2023-05-18T07:44:03.253Z,23.29
2023-05-18T07:46:33.652Z,23.41
2023-05-18T07:49:04.250Z,23.37
2023-05-18T07:51:34.196Z,25.55
2023-05-18T07:54:04.273Z,24.74
2023-05-18T07:56:32.522Z,24.96
2023-05-18T07:59:03.978Z,24.80
2023-05-18T08:01:35.366Z,24.81
2023-05-18T08:04:07.790Z,26.09
2023-05-18T08:06:37.767Z,25.48
2023-05-18T08:09:07.168Z,26.57
2023-05-18T08:11:35.210Z,26.39
2023-05-18T08:14:06.836Z,26.50
2023-05-18T08:16:37.663Z,26.38
2023-05-18T08:19:14.072Z,26.64
2023-05-18T08:21:46.728Z,26.74
2023-05-18T08:24:15.178Z,26.36
2023-05-18T08:26:43.475Z,26.71
2023-05-18T08:29:18.679Z,26.92
2023-05-18T08:31:49.292Z,27.03
2023-05-18T08:34:18.617Z,27.10
2023-05-18T08:36:48.506Z,27.31
2023-05-18T08:39:16.449Z,26.13
2023-05-18T08:41:51.068Z,25.51
2023-05-18T08:44:22.218Z,27.42
2023-05-18T08:46:51.857Z,28.36
2023-05-18T08:49:22.704Z,28.79
2023-05-18T08:51:58.500Z,28.39
2023-05-18T08:54:29.188Z,29.85
2023-05-18T08:57:03.477Z,29.52
2023-05-18T08:59:41.308Z,29.21
2023-05-18T09:02:09.259Z,29.83
2023-05-18T09:04:38.137Z,30.07
2023-05-18T09:07:07.537Z,29.78
2023-05-18T09:09:35.391Z,30.56
2023-05-18T09:12:03.579Z,30.86
2023-05-18T09:14:32.135Z,31.47
2023-05-18T09:17:00.267Z,31.66
2023-05-18T09:19:28.684Z,30.00
2023-05-18T09:21:56.578Z,32.59
2023-05-18T09:24:41.285Z,32.79
2023-05-18T09:27:09.342Z,33.39
2023-05-18T09:29:37.202Z,33.48
2023-05-18T09:32:06.055Z,33.29
2023-05-18T09:34:41.028Z,33.37
2023-05-18T09:37:09.191Z,33.02
2023-05-18T09:39:39.452Z,33.72
2023-05-18T09:42:08.134Z,33.51
2023-05-18T09:44:36.184Z,34.09
2023-05-18T09:47:04.225Z,34.35
2023-05-18T09:49:33.309Z,33.65
2023-05-18T09:52:01.197Z,34.58
2023-05-18T09:54:29.344Z,35.23
2023-05-18T09:57:10.241Z,35.68
2023-05-18T09:59:38.508Z,35.34
2023-05-18T10:02:08.742Z,35.02
2023-05-18T10:04:37.383Z,34.44
2023-05-18T10:07:13.402Z,35.19
2023-05-18T10:09:41.872Z,35.52
2023-05-18T10:12:14.743Z,35.83
2023-05-18T10:14:42.893Z,36.74
2023-05-18T10:17:15.742Z,36.99
2023-05-18T10:19:44.722Z,37.50
2023-05-18T10:22:12.776Z,37.63
2023-05-18T10:24:41.806Z,38.24
2023-05-18T10:27:17.072Z,37.96
2023-05-18T10:29:45.473Z,36.89
2023-05-18T10:32:13.898Z,37.10
2023-05-18T10:34:42.079Z,36.93
2023-05-18T10:37:11.861Z,36.81
2023-05-18T10:39:40.427Z,37.59
2023-05-18T10:42:08.704Z,37.94
2023-05-18T10:44:41.289Z,37.64
2023-05-18T10:47:12.342Z,38.29
2023-05-18T10:49:40.936Z,37.55
2023-05-18T10:52:23.934Z,38.79
2023-05-18T10:54:52.161Z,38.25
2023-05-18T11:17:52.167Z,35.16
2023-05-18T11:21:32.390Z,36.33
2023-05-18T11:48:35.022Z,27.19
2023-05-18T11:51:04.052Z,26.80
2023-05-18T11:53:32.278Z,26.53
2023-05-18T11:56:01.076Z,25.81
2023-05-18T11:58:29.170Z,25.51
2023-05-18T12:01:00.048Z,24.79
2023-05-18T12:03:28.376Z,24.58
2023-05-18T12:05:59.303Z,24.52
2023-05-18T12:08:30.116Z,25.45
2023-05-18T12:10:58.118Z,25.37
2023-05-18T12:13:25.841Z,25.22
2023-05-18T12:15:53.550Z,25.01
2023-05-18T12:18:22.769Z,24.87
2023-05-18T12:20:51.329Z,24.70
2023-05-18T12:23:19.118Z,24.70
2023-05-18T12:25:46.868Z,24.84
2023-05-18T12:28:16.597Z,24.47
2023-05-18T12:30:44.435Z,24.04
2023-05-18T12:33:13.360Z,24.16
2023-05-18T12:35:42.568Z,23.97
2023-05-18T12:38:10.326Z,23.99
2023-05-18T12:40:44.869Z,23.92
2023-05-18T12:43:13.117Z,23.91
2023-05-18T12:45:41.089Z,24.04
2023-05-18T12:48:09.583Z,24.14
2023-05-18T12:50:38.803Z,23.97
2023-05-18T12:53:08.069Z,24.34
2023-05-18T12:55:39.149Z,24.51
2023-05-18T12:58:08.006Z,24.48
2023-05-18T13:00:36.073Z,23.49
2023-05-18T13:03:07.529Z,23.78
2023-05-18T13:05:35.674Z,24.27
2023-05-18T13:08:03.468Z,23.63
2023-05-18T13:10:33.122Z,24.29
2023-05-18T13:13:03.648Z,23.80
2023-05-18T13:15:34.263Z,23.72
2023-05-18T13:18:02.975Z,24.06
2023-05-18T13:20:33.326Z,23.98
2023-05-18T13:23:06.661Z,23.72
2023-05-18T13:25:35.766Z,24.02
2023-05-18T13:28:03.648Z,24.12
2023-05-18T13:30:31.681Z,24.02
2023-05-18T13:33:00.347Z,23.93
2023-05-18T13:35:28.322Z,23.62
2023-05-18T13:37:56.261Z,24.03
2023-05-18T13:40:25.687Z,23.97
2023-05-18T13:42:55.096Z,23.79
2023-05-18T13:45:22.939Z,23.90
2023-05-18T13:47:51.729Z,23.79
2023-05-18T13:50:19.677Z,23.58
2023-05-18T13:52:47.687Z,23.41
2023-05-18T13:55:15.628Z,23.33
2023-05-18T13:57:43.448Z,22.93
2023-05-18T14:00:13.995Z,23.28
2023-05-18T14:02:42.039Z,23.17
2023-05-18T14:05:10.164Z,23.15
2023-05-18T14:07:37.893Z,23.12
2023-05-18T14:10:06.496Z,23.08
2023-05-18T14:12:34.406Z,22.54
2023-05-18T14:15:02.321Z,21.94
2023-05-18T14:17:32.550Z,22.64
2023-05-18T14:20:00.337Z,22.78
2023-05-18T14:22:28.145Z,22.95
2023-05-18T14:24:56.199Z,22.92
2023-05-18T14:27:23.988Z,22.99
2023-05-18T14:29:51.776Z,23.03
2023-05-18T14:32:20.744Z,23.08
2023-05-18T14:34:51.827Z,23.03
2023-05-18T16:07:35.844Z,20.07
2023-05-18T16:10:03.611Z,21.93
2023-05-18T16:12:31.909Z,22.09
2023-05-18T16:15:02.943Z,22.05
2023-05-18T16:17:32.803Z,21.95
2023-05-18T16:20:03.295Z,22.12
2023-05-18T16:22:33.354Z,22.17
2023-05-18T16:25:01.205Z,22.08
2023-05-18T16:27:29.395Z,22.16
2023-05-18T16:29:57.145Z,22.12
2023-05-18T16:32:27.960Z,22.00
2023-05-18T16:34:55.738Z,21.94
2023-05-18T16:41:28.093Z,19.14
2023-05-18T16:44:01.166Z,20.47
2023-05-18T16:46:31.413Z,19.59
2023-05-18T16:48:59.455Z,21.72
2023-05-18T16:51:28.267Z,21.21
2023-05-18T16:53:58.066Z,21.70
2023-05-18T16:56:27.316Z,20.86
2023-05-18T16:58:57.608Z,20.65
2023-05-18T17:01:28.553Z,20.99
2023-05-18T17:03:57.821Z,20.52
2023-05-18T17:11:49.133Z,21.22
2023-05-18T17:14:20.512Z,21.08
2023-05-18T17:16:48.406Z,21.19
2023-05-18T17:19:16.937Z,21.13
2023-05-18T17:21:46.376Z,20.45
2023-05-18T17:24:14.561Z,20.72
2023-05-18T17:26:43.389Z,20.25
2023-05-18T17:29:16.023Z,20.93
2023-05-18T17:31:47.242Z,19.72
2023-05-18T17:34:15.824Z,20.70
2023-05-18T17:36:49.020Z,20.75
2023-05-18T17:39:17.564Z,20.82
2023-05-18T17:41:46.386Z,20.27
2023-05-18T17:45:11.426Z,20.77
2023-05-18T17:47:47.624Z,19.26
2023-05-18T17:50:18.250Z,20.59
2023-05-18T17:52:54.688Z,20.57
2023-05-18T17:55:29.043Z,20.28
2023-05-18T17:58:01.453Z,20.03
2023-05-18T18:18:24.081Z,19.05
2023-05-18T18:42:08.908Z,19.19
2023-05-18T18:44:39.343Z,19.60
2023-05-18T18:47:07.662Z,19.57
2023-05-18T18:49:35.663Z,19.48
2023-05-18T18:57:14.024Z,19.34
2023-05-18T18:59:44.273Z,19.33
2023-05-18T19:02:15.154Z,18.69
2023-05-18T19:04:43.229Z,19.03
2023-05-18T19:07:11.145Z,18.83
2023-05-18T19:09:39.257Z,19.15
2023-05-18T19:12:10.702Z,19.07
2023-05-18T19:14:41.267Z,18.81
2023-05-18T19:17:09.004Z,18.56
2023-05-18T19:19:37.917Z,18.88
2023-05-18T19:22:05.997Z,18.74
2023-05-18T19:24:34.725Z,18.80
2023-05-18T19:27:03.330Z,18.73
2023-05-18T19:29:31.964Z,18.67
2023-05-18T19:32:01.217Z,18.56
2023-05-18T19:34:29.148Z,18.35
2023-05-18T19:36:59.825Z,18.17
2023-05-18T19:39:28.090Z,18.26
2023-05-18T19:41:55.833Z,17.75
2023-05-18T19:44:24.724Z,18.28
2023-05-18T19:46:52.880Z,18.13
2023-05-18T19:49:24.693Z,17.39
2023-05-18T19:51:52.818Z,18.00
2023-05-18T19:54:20.816Z,17.97
2023-05-18T19:56:48.686Z,17.56
2023-05-18T19:59:16.940Z,17.96
2023-05-18T20:01:45.089Z,17.40
2023-05-18T20:04:13.164Z,17.85
2023-05-18T20:06:42.686Z,17.23
2023-05-18T20:09:13.707Z,16.88
2023-05-18T20:11:41.493Z,17.67
2023-05-18T20:14:09.403Z,17.28
2023-05-18T20:16:41.972Z,16.95
2023-05-18T20:19:10.245Z,16.94
2023-05-18T20:21:38.286Z,17.15
2023-05-18T20:24:08.163Z,16.49
2023-05-18T20:26:36.302Z,17.48
2023-05-18T20:29:04.179Z,17.45
2023-05-18T20:31:32.228Z,17.29
2023-05-18T20:34:00.099Z,17.41
2023-05-18T20:36:28.209Z,17.17
2023-05-18T20:38:59.493Z,17.31
2023-05-18T20:41:29.650Z,17.32
2023-05-18T20:44:02.152Z,17.27
2023-05-18T20:46:31.156Z,16.64
2023-05-18T20:48:59.676Z,16.15
2023-05-18T20:51:28.330Z,16.01
2023-05-18T20:53:56.649Z,17.15
2023-05-18T20:56:26.559Z,15.59
2023-05-18T20:58:57.021Z,16.07
2023-05-18T21:01:28.794Z,16.55
2023-05-18T21:03:59.294Z,16.84
2023-05-18T21:06:27.525Z,15.47
2023-05-18T21:08:55.810Z,17.00
2023-05-18T21:11:23.770Z,15.20
2023-05-18T21:13:51.890Z,16.94
2023-05-18T21:16:24.233Z,15.70
2023-05-18T21:18:52.866Z,16.87
2023-05-18T21:21:21.172Z,15.78
2023-05-18T21:23:52.018Z,16.23
2023-05-18T21:26:20.141Z,16.79
2023-05-18T21:28:49.264Z,16.75
2023-05-18T21:31:17.643Z,16.53
2023-05-18T21:38:09.518Z,15.52
2023-05-18T21:40:58.228Z,14.79
2023-05-18T21:43:38.574Z,16.34
2023-05-18T21:46:14.674Z,16.62
2023-05-18T21:49:28.174Z,15.58
2023-05-18T21:55:54.983Z,15.00
2023-05-18T21:58:28.873Z,15.37
2023-05-18T22:01:02.831Z,14.20
2023-05-18T22:03:39.931Z,13.10
2023-05-18T22:06:18.501Z,16.36
2023-05-18T22:09:22.750Z,14.10
2023-05-18T22:12:03.574Z,16.07
2023-05-18T22:15:25.765Z,13.29
2023-05-18T22:17:54.539Z,16.27
2023-05-18T22:20:34.611Z,15.68
2023-05-18T22:25:54.860Z,14.86
2023-05-18T22:28:32.772Z,16.08
2023-05-18T22:31:00.499Z,15.40
2023-05-18T22:33:28.950Z,16.03
2023-05-18T22:35:57.034Z,15.99
2023-05-18T22:38:28.032Z,15.96
2023-05-18T22:41:02.187Z,15.37
2023-05-18T22:43:35.088Z,15.88
2023-05-18T22:46:03.244Z,15.88
2023-05-18T22:48:34.716Z,15.49
2023-05-18T22:51:13.851Z,14.21
2023-05-18T22:53:46.549Z,15.31
2023-05-18T22:56:26.573Z,15.37
2023-05-18T22:58:55.865Z,15.61
2023-05-18T23:01:23.697Z,15.50
2023-05-18T23:03:52.623Z,15.16
2023-05-18T23:11:39.688Z,14.36
2023-05-18T23:14:11.096Z,15.57
2023-05-18T23:16:42.476Z,14.88
2023-05-18T23:19:12.674Z,15.52
2023-05-18T23:21:40.916Z,15.48
2023-05-18T23:24:11.691Z,15.46
2023-05-18T23:26:39.571Z,15.24
2023-05-18T23:29:08.943Z,15.38
2023-05-18T23:31:37.911Z,15.36
2023-05-18T23:34:06.374Z,15.34
2023-05-18T23:36:35.185Z,14.98
2023-05-18T23:39:06.113Z,15.29
2023-05-18T23:41:33.965Z,15.25
2023-05-18T23:44:10.259Z,15.21
2023-05-18T23:46:40.410Z,15.18
2023-05-18T23:49:09.357Z,15.16
2023-05-18T23:51:37.166Z,15.12
2023-05-18T23:54:07.125Z,14.93
2023-05-18T23:56:35.460Z,14.72
2023-05-18T23:59:03.657Z,15.02
